• Join FlightAware (Why Join?)
  • Login
  • US Flag 
10:09AM EST


 

Airport Tracker/Info


-or-


 

Live Flight TrackerFlight Track Log ✈ SWA2503 ✈ 16-Jul-2013 ✈ KDAL - KMCI

Flight Track Log - Related Links

Times and Time Zones

All times are in EDT time to prevent confusion due to time zone crossing. See the SWA2503 flight status page for this flight to view local times or setup timezone preferences in your user account.

Time Position Orientation Groundspeed Altitude Reporting Facility
EDT Latitude Longitude Course Direction KTS MPH feet Rate Location/Type
07:16AM 32.8333 -96.8333 North 171 197 1,700  Level Dallas / Fort Worth TRACON
07:17AM 32.7833 -96.7833 140° Southeast 213 245 3,600 2,280 Climbing Dallas / Fort Worth TRACON
07:18AM 32.7833 -96.7333 90° East 247 284 6,300 2,580 Climbing Dallas / Fort Worth TRACON
07:20AM 32.9153 -96.7872 341° North 315 362 10,900 2,580 Climbing Fort Worth Center
07:21AM 32.9947 -96.8289 336° Northwest 333 383 13,500 2,520 Climbing Fort Worth Center
07:22AM 33.2463 -97.1245 North  Level FlightAware Approximate
07:22AM 33.0911 -96.8903 332° Northwest 351 404 16,000  Level Fort Worth Center
07:23AM 33.1747 -96.9394 334° Northwest 365 420 18,100 1,860 Climbing Fort Worth Center
07:24AM 33.2878 -96.9811 343° North 377 434 19,800 2,160 Climbing Fort Worth Center
07:25AM 33.3858 -96.9533 13° North 382 440 22,500 2,160 Climbing Fort Worth Center
07:26AM 33.4942 -96.9228 13° North 392 451 24,200 1,500 Climbing Fort Worth Center
07:27AM 33.6025 -96.8897 14° North 392 451 25,600 1,380 Climbing Fort Worth Center
07:28AM 33.7172 -96.8542 14° North 392 451 27,000 1,260 Climbing Fort Worth Center
07:29AM 33.8317 -96.8183 15° North 404 465 28,200 1,140 Climbing Fort Worth Center
07:30AM 33.9486 -96.7825 14° North 419 482 29,300 1,020 Climbing Fort Worth Center
07:31AM 34.0694 -96.7417 16° North 429 494 30,300 1,140 Climbing Fort Worth Center
07:32AM 34.2006 -96.7053 13° North 434 499 31,600 1,260 Climbing Fort Worth Center
07:33AM 34.3214 -96.6692 14° North 434 499 32,800 1,080 Climbing Fort Worth Center
07:34AM 34.4442 -96.6303 15° North 439 505 33,800 1,020 Climbing Fort Worth Center
07:35AM 34.5631 -96.5939 14° North 439 505 34,900 900 Climbing Fort Worth Center
07:36AM 34.6836 -96.5525 16° North 439 505 35,600 660 Climbing Fort Worth Center
07:37AM 34.8064 -96.5158 14° North 439 505 36,300 660 Climbing Fort Worth Center
07:38AM 34.9292 -96.4764 15° North 444 511 37,000 300 Climbing Fort Worth Center
07:39AM 35.0500 -96.4372 15° North 444 511 37,000  Level Fort Worth Center
07:40AM 35.1728 -96.3975 15° North 449 517 37,000  Level Fort Worth Center
07:41AM 35.2956 -96.3606 14° North 449 517 37,000  Level Fort Worth Center
07:42AM 35.3856 -96.3283 16° North 453 521 37,000  Level Kansas City Center
07:43AM 35.5069 -96.2908 14° North 452 520 37,000  Level Kansas City Center
07:44AM 35.6269 -96.2519 15° North 450 518 37,000  Level Kansas City Center
07:45AM 35.7481 -96.2133 15° North 451 519 37,000  Level Kansas City Center
07:46AM 35.8806 -96.1719 14° North 448 516 37,000  Level Kansas City Center
07:47AM 36.0017 -96.1331 15° North 447 514 37,000  Level Kansas City Center
07:48AM 36.1225 -96.0944 14° North 446 513 37,000  Level Kansas City Center
07:49AM 36.2425 -96.0553 15° North 443 510 37,000  Level Kansas City Center
07:50AM 36.3617 -96.0161 15° North 441 507 37,000  Level Kansas City Center
07:51AM 36.4817 -95.9767 15° North 440 506 37,000  Level Kansas City Center
07:52AM 36.6036 -95.9503 10° North 440 506 37,000  Level Kansas City Center
07:53AM 36.7244 -95.9208 11° North 439 505 37,000  Level Kansas City Center
07:54AM 36.8450 -95.8919 11° North 438 504 37,000  Level Kansas City Center
07:55AM 36.9650 -95.8653 10° North 435 501 37,000  Level Kansas City Center
07:56AM 37.0844 -95.8367 11° North 434 499 37,000  Level Kansas City Center
07:57AM 37.2283 -95.8025 11° North 436 502 37,000  Level Kansas City Center
07:58AM 37.3478 -95.7739 11° North 435 501 37,000  Level Kansas City Center
07:59AM 37.4667 -95.7447 11° North 435 501 37,000  Level Kansas City Center
08:00AM 37.5867 -95.7181 10° North 435 501 37,000 -360 Level Kansas City Center
08:01AM 37.7056 -95.6889 11° North 435 501 36,300 -1,440 Descending Kansas City Center
08:02AM 37.8236 -95.6606 11° North 431 496 34,100 -2,220 Descending Kansas City Center
08:03AM 37.9444 -95.6331 10° North 419 482 31,800 -2,340 Descending Kansas City Center
08:04AM 38.0519 -95.6069 11° North 409 471 29,500 -2,040 Descending Kansas City Center
08:05AM 38.1603 -95.5808 11° North 414 476 27,600 -1,920 Descending Kansas City Center
08:06AM 38.2922 -95.5494 11° North 431 496 25,500 -2,040 Descending Kansas City Center
08:07AM 38.4086 -95.5200 11° North 443 510 23,500 -2,100 Descending Kansas City Center
08:09AM 38.5456 -95.4861 11° North 447 514 21,200 -2,100 Descending Kansas City Center
08:10AM 38.6614 -95.4572 11° North 443 510 19,200 -1,800 Descending Kansas City Center
08:11AM 38.7764 -95.4264 12° North 439 505 17,600 -2,040 Descending Kansas City Center
08:12AM 38.8728 -95.3236 40° Northeast 408 470 15,200 -2,220 Descending Kansas City Center
08:13AM 38.9422 -95.2272 47° Northeast 388 447 13,100 -2,100 Descending Kansas City Center
08:14AM 39.0172 -95.1200 48° Northeast 364 419 11,000 -1,080 Descending Kansas City Center
08:15AM 39.0783 -95.0328 48° Northeast 349 402 11,000 -300 Level Kansas City Center
08:16AM 39.1419 -94.9414 48° Northeast 300 345 10,400 -1,020 Descending Kansas City Center
08:17AM 39.1964 -94.8708 45° Northeast 287 330 9,000 -1,260 Descending Kansas City Center
08:18AM 39.2783 -94.8453 14° North 275 316 7,900 -1,080 Descending Kansas City Center
08:19AM 39.3458 -94.8267 12° North 260 299 6,800 -1,140 Descending Kansas City Center
08:20AM 39.4114 -94.8078 13° North 254 292 5,600 -1,320 Descending Kansas City Center
08:21AM 39.4878 -94.7836 14° North 253 291 4,200 -1,140 Descending Kansas City Center
08:22AM 39.4803 -94.7203 99° East 228 262 3,400 -780 Descending Kansas City Center
08:23AM 39.4214 -94.6983 164° South 195 224 2,700 -600 Descending Kansas City Center
08:24AM 39.3828 -94.7025 185° South 145 167 2,200 -600 Descending Kansas City Center
08:25AM 39.3486 -94.7128 193° South 132 152 1,600 -600 Descending Kansas City Center
08:26AM 39.3092 -94.7242 193° South 134 154 1,000 -600 Descending Kansas City Center